ADDS METAR Data INFO
IDs: Format: Raw Decoded Include TAF

Data at: 1050 UTC 20 Sep 2017

KSNK 201035Z AUTO 18004KT 10SM CLR 22/18 A2987 RMK AO2 T02200180
KSNK 201015Z AUTO 16006KT 10SM CLR 22/18 A2986 RMK AO2 T02230183
KSNK 200955Z AUTO 17007KT 10SM CLR 22/19 A2986 RMK AO2 T02190185
KSNK 200935Z AUTO 19006KT 10SM CLR 22/19 A2986 RMK AO2 T02170185
KSNK 200915Z AUTO 19005KT 10SM CLR 22/19 A2986 RMK AO2 T02210185
KSNK 200855Z AUTO 19005KT 10SM CLR 22/19 A2986 RMK AO2 T02240186
KSNK 200835Z AUTO 18007KT 10SM CLR 23/19 A2986 RMK AO2 T02260186
KSNK 200815Z AUTO 17006KT 10SM CLR 23/19 A2986 RMK AO2 T02290186
KSNK 200755Z AUTO 17006KT 10SM CLR 23/19 A2986 RMK AO2 T02320186
KSNK 200735Z AUTO 19006KT 10SM CLR 24/19 A2987 RMK AO2 T02360186
KSNK 200715Z AUTO 17008G14KT 10SM CLR 24/19 A2986 RMK AO2 T02380186
KSNK 200655Z AUTO 16011KT 10SM CLR 24/19 A2986 RMK AO2 T02400186
KSNK 200635Z AUTO 17010KT 10SM CLR 24/18 A2987 RMK AO2 T02420184
KSNK 200615Z AUTO 16012KT 10SM CLR 24/18 A2987 RMK AO2 T02440182
KSNK 200555Z AUTO 17011G16KT 10SM CLR 25/18 A2988 RMK AO2 T02470181
KSNK 200535Z AUTO 16012G18KT 10SM SCT120 25/18 A2988 RMK AO2 T02510180
KSNK 200515Z AUTO 16012KT 10SM CLR 25/18 A2988 RMK AO2 T02500178
KSNK 200455Z AUTO 16012KT 10SM CLR 25/18 A2988 RMK AO2 P0001 T02500175
KSNK 200435Z AUTO 16013G18KT 10SM CLR 25/17 A2987 RMK AO2 T02500173
KSNK 200415Z AUTO 15015G20KT 10SM CLR 25/17 A2986 RMK AO2 T02520172
KSNK 200355Z AUTO 15017G22KT 10SM CLR 25/17 A2986 RMK AO2 T02510171
KSNK 200335Z AUTO 15014G21KT 10SM CLR 25/17 A2984 RMK AO2 T02510170
KSNK 200315Z AUTO 15017G26KT 10SM SCT120 25/17 A2984 RMK AO2 T02530171
KSNK 200255Z AUTO 15017G24KT 10SM SCT120 26/17 A2983 RMK AO2 T02550174
KSNK 200235Z AUTO 14017G24KT 10SM CLR 26/18 A2982 RMK AO2 T02610178
KSNK 200215Z AUTO 14020G26KT 10SM CLR 27/18 A2981 RMK AO2 LTG DSNT E T02740176
KSNK 200155Z AUTO 15010KT 10SM SCT120 29/16 A2979 RMK AO2 LTG DSNT E P0001 T02910160
KSNK 200135Z AUTO 15009KT 10SM BKN120 29/16 A2979 RMK AO2 P0001 T02930162
KSNK 200115Z AUTO 16008KT 10SM CLR 30/16 A2979 RMK AO2 T03000162
KSNK 200055Z AUTO 16008KT 10SM CLR 31/16 A2978 RMK AO2 P0001 T03080164
KSNK 200035Z AUTO 17007KT 10SM CLR 32/17 A2977 RMK AO2 P0001 T03150169
KSNK 200015Z AUTO 20004KT 10SM CLR 32/18 A2977 RMK AO2 P0001 T03170177
KSNK 192355Z AUTO 17005KT 10SM CLR 31/17 A2977 RMK AO2 LTG DSNT SE T03060174
KSNK 192335Z AUTO 07009KT 3SM -RA SCT021 SCT032 SCT044 31/16 A2977 RMK AO2 LTG DSNT SE T03050164
KSNK 192315Z AUTO 24010G14KT 10SM SCT095 34/14 A2977 RMK AO2 LTG DSNT W T03420138
KSNK 192255Z AUTO 20009G17KT 10SM SCT095 34/14 A2977 RMK AO2 LTG DSNT W T03440136
KSNK 192235Z AUTO 21012G16KT 10SM SCT095 SCT120 36/14 A2978 RMK AO2 T03550137
KSNK 192215Z AUTO 20013G18KT 10SM CLR 36/14 A2978 RMK AO2 T03570140
KSNK 192155Z AUTO 18011KT 10SM CLR 36/14 A2980 RMK AO2 T03570139
KSNK 192135Z AUTO 22008G20KT 10SM CLR 36/14 A2981 RMK AO2 T03570135
KSNK 192115Z AUTO 20009G17KT 10SM CLR 36/14 A2981 RMK AO2 T03580137
KSNK 192055Z AUTO 20012G18KT 10SM CLR 36/14 A2982 RMK AO2 T03580138
KSNK 192035Z AUTO 22013G18KT 190V250 10SM CLR 35/14 A2984 RMK AO2 T03520136
KSNK 192015Z AUTO 20009G18KT 10SM CLR 35/14 A2984 RMK AO2 T03480141
KSNK 191955Z AUTO 20010G18KT 10SM CLR 34/16 A2986 RMK AO2 T03440158
KSNK 191935Z AUTO 18014G20KT 10SM CLR 34/16 A2987 RMK AO2 T03440163
KSNK 191915Z AUTO 21013G24KT 10SM CLR 34/17 A2988 RMK AO2 T03360167
KSNK 191855Z AUTO 20015G22KT 170V230 10SM CLR 34/17 A2989 RMK AO2 T03350173
KSNK 191835Z AUTO 20016G22KT 10SM CLR 33/18 A2991 RMK AO2 T03270176
KSNK 191815Z AUTO 20015G21KT 10SM CLR 32/18 A2992 RMK AO2 T03230180
KSNK 191755Z AUTO 19015G20KT 10SM CLR 32/18 A2992 RMK AO2 T03200180
KSNK 191735Z AUTO 19016G23KT 10SM CLR 32/18 A2993 RMK AO2 T03160178
KSNK 191715Z AUTO 21015G22KT 10SM CLR 31/19 A2993 RMK AO2 T03050188
KSNK 191655Z AUTO 21013G19KT 10SM CLR 29/20 A2994 RMK AO2 T02890200
KSNK 191635Z AUTO 17014G19KT 10SM CLR 28/20 A2994 RMK AO2 LTG DSNT N AND S T02810199
KSNK 191615Z AUTO 17014G18KT 10SM CLR 28/20 A2993 RMK AO2 LTG DSNT N AND S T02790198
KSNK 191555Z AUTO 18013G18KT 10SM CLR 27/20 A2993 RMK AO2 LTG DSNT N T02700198
KSNK 191535Z AUTO 17012KT 10SM CLR 26/20 A2993 RMK AO2 LTG DSNT NE AND S T02640200
KSNK 191515Z AUTO 18013G20KT 10SM CLR 27/20 A2994 RMK AO2 T02670200
KSNK 191455Z AUTO 19016G19KT 10SM CLR 26/20 A2993 RMK AO2 T02640200
KSNK 191435Z AUTO 18014G18KT 10SM CLR 25/20 A2993 RMK AO2 T02510200
KSNK 191415Z AUTO 18012G19KT 10SM CLR 24/20 A2993 RMK AO2 T02430198
KSNK 191355Z AUTO 18013KT 10SM CLR 24/19 A2993 RMK AO2 T02380194
KSNK 191335Z AUTO 17010KT 10SM CLR 23/19 A2994 RMK AO2 T02320188
KSNK 191315Z AUTO 18010KT 10SM CLR 23/18 A2994 RMK AO2 T02280182
KSNK 191255Z AUTO 18009KT 10SM CLR 23/18 A2993 RMK AO2 T02280178
KSNK 191235Z AUTO 18009KT 10SM CLR 23/17 A2993 RMK AO2 T02290173
KSNK 191215Z AUTO 17010KT 10SM CLR 23/17 A2993 RMK AO2 T02310171
KSNK 191155Z AUTO 17009KT 10SM CLR 23/17 A2993 RMK AO2 T02290170
KSNK 191135Z AUTO 19008KT 10SM CLR 22/17 A2993 RMK AO2 T02220165
KSNK 191115Z AUTO 19007KT 10SM CLR 22/16 A2993 RMK AO2 T02170163
KSNK 191055Z AUTO 20007KT 10SM CLR 21/16 A2994 RMK AO2 LTG DSNT W T02090161
KSNK 191035Z AUTO 20006KT 10SM CLR 21/16 A2994 RMK AO2 LTG DSNT W T02100160
KSNK 191015Z AUTO 20005KT 10SM CLR 22/16 A2993 RMK AO2 T02200160
KSNK 190955Z AUTO 19006KT 10SM CLR 22/16 A2992 RMK AO2 T02230160
KSNK 190935Z AUTO 19006KT 10SM CLR 23/16 A2992 RMK AO2 T02250160
KSNK 190915Z AUTO 19006KT 10SM CLR 23/16 A2992 RMK AO2 LTG DSNT W T02290161
KSNK 190855Z AUTO 20006KT 10SM CLR 24/16 A2992 RMK AO2 T02360163
KSNK 190835Z AUTO 20008KT 10SM CLR 23/16 A2993 RMK AO2 T02320164
KSNK 190815Z AUTO 19006KT 10SM CLR 23/17 A2993 RMK AO2 T02320166
KSNK 190755Z AUTO 18006KT 10SM CLR 23/17 A2993 RMK AO2 T02340170
KSNK 190735Z AUTO 19007KT 10SM CLR 23/18 A2993 RMK AO2 T02290176
KSNK 190715Z AUTO 20007KT 10SM CLR 22/18 A2993 RMK AO2 T02190182
KSNK 190655Z AUTO 21005KT 10SM CLR 22/18 A2993 RMK AO2 T02210183
KSNK 190635Z AUTO 20005KT 10SM CLR 22/19 A2994 RMK AO2 T02230185
KSNK 190615Z AUTO 20005KT 10SM CLR 23/19 A2994 RMK AO2 T02310185
KSNK 190555Z AUTO 21005KT 10SM CLR 23/19 A2995 RMK AO2 T02340185
KSNK 190535Z AUTO 20007KT 10SM CLR 24/19 A2995 RMK AO2 T02360186
KSNK 190515Z AUTO 20005KT 10SM CLR 24/19 A2995 RMK AO2 T02410186
KSNK 190455Z AUTO 20005KT 10SM CLR 25/18 A2995 RMK AO2 T02520184
KSNK 190435Z AUTO 22009KT 10SM CLR 27/17 A2995 RMK AO2 LTG DSNT N AND NE T02720170
KSNK 190415Z AUTO 18008KT 10SM CLR 28/17 A2995 RMK AO2 T02780167
KSNK 190355Z AUTO 18011KT 10SM SCT060 SCT120 28/17 A2995 RMK AO2 LTG DSNT SE AND SW T02820167
KSNK 190335Z AUTO 15013G21KT 120V220 10SM -VCTSRA SCT060 SCT070 SCT120 27/17 A2994 RMK AO2 LTG DSNT SE AND SW T02670174
KSNK 190315Z AUTO 23011G15KT 10SM -DZ SCT060 SCT085 SCT110 25/18 A2997 RMK AO2 LTG DSNT SW T02460180
KSNK 190255Z AUTO 21009KT 10SM -TSRA SCT055 SCT085 OVC110 27/18 A2998 RMK AO2 LTG DSNT ALQS T02670179
KSNK 190235Z AUTO 17007KT 10SM -TSRA SCT055 BKN070 BKN110 29/17 A2997 RMK AO2 LTG DSNT ALQS T02920168
KSNK 190215Z AUTO 16011KT 10SM -TSRA SCT070 30/16 A2993 RMK AO2 LTG DSNT ALQS T03030161
KSNK 190155Z AUTO 15014KT 10SM CLR 31/16 A2990 RMK AO2 LTG DSNT SW THRU NW T03070161
KSNK 190135Z AUTO 15009KT 10SM VCTS CLR 31/16 A2993 RMK AO2 LTG DSNT SW AND NW T03090162
KSNK 190115Z AUTO 14011KT 10SM VCTS CLR 31/16 A2991 RMK AO2 LTG DSNT W AND NW T03110158
KSNK 190055Z AUTO 14009KT 10SM CLR 32/16 A2990 RMK AO2 LTG DSNT W AND NW T03150155
KSNK 190035Z AUTO 14009KT 10SM CLR 32/16 A2991 RMK AO2 T03200156
KSNK 190015Z AUTO 14009KT 10SM CLR 33/16 A2991 RMK AO2 T03260159
KSNK 182355Z AUTO 15009G15KT 10SM CLR 34/16 A2991 RMK AO2 T03360161
KSNK 182335Z AUTO 16008G15KT 10SM CLR 34/16 A2992 RMK AO2 T03380161
KSNK 182315Z AUTO 16010G16KT 10SM CLR 34/16 A2993 RMK AO2 T03390160
KSNK 182255Z AUTO 17012G19KT 10SM CLR 34/16 A2993 RMK AO2 T03410159